ADDS METAR Data INFO
IDs: Format: Raw Decoded Include TAF

Data at: 1045 UTC 19 Oct 2017

KW31 191035Z AUTO 00000KT 10SM CLR 04/04 A3029 RMK AO1 T00420042
KW31 191015Z AUTO 00000KT 10SM CLR 04/04 A3029 RMK AO1 T00440044
KW31 190955Z AUTO 00000KT 10SM CLR 05/05 A3029 RMK AO1 T00520052
KW31 190935Z AUTO 00000KT 10SM CLR 05/05 A3029 RMK AO1 T00510051
KW31 190915Z AUTO 00000KT 10SM CLR 06/06 A3029 RMK AO1 T00580056
KW31 190855Z AUTO 00000KT 10SM CLR 05/05 A3029 RMK AO1 T00500050
KW31 190835Z AUTO 00000KT 10SM CLR 06/06 A3029 RMK AO1 T00550055
KW31 190815Z AUTO 00000KT 10SM CLR 05/05 A3029 RMK AO1 T00500050
KW31 190755Z AUTO 00000KT 10SM CLR 05/05 A3029 RMK AO1 T00500050
KW31 190735Z AUTO 00000KT 10SM CLR 05/05 A3030 RMK AO1 T00500050
KW31 190715Z AUTO 00000KT 10SM CLR 05/05 A3030 RMK AO1 T00490049
KW31 190655Z AUTO 00000KT 10SM CLR 06/06 A3030 RMK AO1 T00560056
KW31 190635Z AUTO 00000KT 10SM CLR 05/05 A3031 RMK AO1 T00540054
KW31 190615Z AUTO 00000KT 10SM CLR 05/05 A3031 RMK AO1 T00520052
KW31 190555Z AUTO 00000KT 10SM CLR 06/06 A3031 RMK AO1 T00560055 10099 20056
KW31 190535Z AUTO 10SM CLR 06/06 A3031 RMK AO1 T00620059
KW31 190515Z AUTO 00000KT 10SM CLR 06/06 A3032 RMK AO1 T00590059
KW31 190455Z AUTO 00000KT 10SM CLR 06/06 A3032 RMK AO1 T00640060 401960017
KW31 190435Z AUTO 00000KT 10SM CLR 07/06 A3032 RMK AO1 T00700057
KW31 190415Z AUTO 00000KT 10SM CLR 07/06 A3032 RMK AO1 T00660060
KW31 190355Z AUTO 00000KT 10SM CLR 07/06 A3032 RMK AO1 T00690059
KW31 190335Z AUTO 00000KT 10SM CLR 08/06 A3033 RMK AO1 T00800057
KW31 190315Z AUTO 00000KT 10SM CLR 08/06 A3033 RMK AO1 T00750055
KW31 190255Z AUTO 00000KT 10SM CLR 07/06 A3033 RMK AO1 T00700056
KW31 190235Z AUTO 00000KT 10SM CLR 07/06 A3032 RMK AO1 T00720060
KW31 190215Z AUTO 00000KT 10SM CLR 08/06 A3032 RMK AO1 T00750055
KW31 190155Z AUTO 00000KT 10SM CLR 08/06 A3033 RMK AO1 T00750062
KW31 190135Z AUTO 00000KT 10SM CLR 08/06 A3033 RMK AO1 T00760063
KW31 190115Z AUTO 00000KT 10SM CLR 08/06 A3033 RMK AO1 T00810062
KW31 190055Z AUTO 00000KT 10SM CLR 08/06 A3033 RMK AO1 T00810060
KW31 190035Z AUTO 00000KT 10SM CLR 09/06 A3033 RMK AO1 T00860060
KW31 190015Z AUTO 00000KT 10SM CLR 09/06 A3033 RMK AO1 T00900063
KW31 182355Z AUTO 00000KT 10SM CLR 10/07 A3032 RMK AO1 T01000067 10196 20098
KW31 182335Z AUTO 00000KT 10SM CLR 10/07 A3032 RMK AO1 T01020067
KW31 182315Z AUTO 00000KT 10SM CLR 11/06 A3032 RMK AO1 T01130060
KW31 182255Z AUTO 00000KT 10SM CLR 12/06 A3032 RMK AO1 T01190058
KW31 182235Z AUTO 00000KT 10SM CLR 14/05 A3032 RMK AO1 T01420053
KW31 182215Z AUTO 00000KT 10SM CLR 15/04 A3032 RMK AO1 T01530041
KW31 182155Z AUTO 00000KT 10SM CLR 18/02 A3031 RMK AO1 T01760024
KW31 182135Z AUTO 00000KT 10SM CLR 18/02 A3031 RMK AO1 T01830017
KW31 182115Z AUTO 00000KT 10SM CLR 19/02 A3032 RMK AO1 T01860018
KW31 182055Z AUTO 16004KT 10SM CLR 19/02 A3032 RMK AO1 T01890019
KW31 182035Z AUTO 00000KT 10SM CLR 19/02 A3032 RMK AO1 T01900020
KW31 182015Z AUTO 00000KT 10SM CLR 19/02 A3033 RMK AO1 T01930018
KW31 181955Z AUTO 00000KT 10SM CLR 19/02 A3033 RMK AO1 T01930018
KW31 181935Z AUTO 06003KT 10SM CLR 19/02 A3034 RMK AO1 T01930017
KW31 181915Z AUTO 00000KT 10SM CLR 20/02 A3034 RMK AO1 T01960023
KW31 181855Z AUTO 00000KT 10SM CLR 19/02 A3035 RMK AO1 T01850016
KW31 181835Z AUTO 00000KT 10SM CLR 19/01 A3035 RMK AO1 T01850007
KW31 181815Z AUTO 00000KT 10SM CLR 18/02 A3036 RMK AO1 T01810018
KW31 181755Z AUTO 00000KT 10SM CLR 18/01 A3037 RMK AO1 T01830014 10190 20018
KW31 181735Z AUTO 00000KT 10SM CLR 17/01 A3037 RMK AO1 T01740014
KW31 181715Z AUTO 00000KT 10SM CLR 17/02 A3038 RMK AO1 T01720024
KW31 181655Z AUTO 05004KT 10SM CLR 17/02 A3040 RMK AO1 T01720023
KW31 181635Z AUTO 06003KT 10SM CLR 17/03 A3040 RMK AO1 T01660026
KW31 181615Z AUTO 00000KT 10SM CLR 17/04 A3040 RMK AO1 T01660036
KW31 181555Z AUTO 00000KT 10SM CLR 16/03 A3041 RMK AO1 T01600034
KW31 181535Z AUTO 00000KT 10SM CLR 15/04 A3042 RMK AO1 T01510036
KW31 181515Z AUTO 00000KT 10SM CLR 15/05 A3041 RMK AO1 T01500053
KW31 181455Z AUTO 00000KT 10SM CLR 14/06 A3041 RMK AO1 T01430057
KW31 181435Z AUTO 00000KT 10SM CLR 13/07 A3041 RMK AO1 T01320066
KW31 181415Z AUTO 00000KT 10SM CLR 12/06 A3041 RMK AO1 T01220062
KW31 181355Z AUTO 00000KT 10SM CLR 12/07 A3041 RMK AO1 T01160070
KW31 181335Z AUTO 10SM CLR 11/06 A3040 RMK AO1 T01060063
KW31 181315Z AUTO 10SM CLR 10/06 A3040 RMK AO1 T00980063
KW31 181255Z AUTO 10SM CLR 08/08 A3039 RMK AO1 T00780078
KW31 181235Z AUTO 10SM CLR 05/05 A3039 RMK AO1 T00490049
KW31 181215Z AUTO 10SM CLR 03/03 A3038 RMK AO1 T00290029
KW31 181155Z AUTO 00000KT 10SM CLR 02/02 A3037 RMK AO1 T00210021 10036 20017
KW31 181135Z AUTO 00000KT 10SM CLR 02/02 A3037 RMK AO1 T00210021
KW31 181115Z AUTO 00000KT 10SM CLR 02/02 A3037 RMK AO1 T00210021
KW31 181055Z AUTO 00000KT 10SM CLR 02/02 A3036 RMK AO1 T00220022
KW31 181035Z AUTO 00000KT 10SM CLR 02/02 A3036 RMK AO1 T00200020
KW31 181015Z AUTO 00000KT 10SM CLR 02/02 A3035 RMK AO1 T00240024
KW31 180955Z AUTO 00000KT 10SM CLR 03/03 A3035 RMK AO1 T00250025
KW31 180935Z AUTO 00000KT 10SM CLR 03/03 A3035 RMK AO1 T00260026
KW31 180915Z AUTO 00000KT 10SM CLR 03/03 A3034 RMK AO1 T00280028
KW31 180855Z AUTO 00000KT 10SM CLR 03/03 A3034 RMK AO1 T00250025
KW31 180835Z AUTO 00000KT 10SM CLR 03/03 A3034 RMK AO1 T00270027
KW31 180815Z AUTO 00000KT 10SM CLR 03/03 A3034 RMK AO1 T00250025
KW31 180755Z AUTO 00000KT 10SM CLR 03/03 A3033 RMK AO1 T00260026
KW31 180735Z AUTO 00000KT 10SM CLR 03/03 A3033 RMK AO1 T00290029
KW31 180715Z AUTO 00000KT 10SM CLR 03/03 A3033 RMK AO1 T00270027
KW31 180655Z AUTO 00000KT 10SM CLR 03/03 A3034 RMK AO1 T00300030
KW31 180635Z AUTO 00000KT 10SM CLR 03/03 A3033 RMK AO1 T00300030
KW31 180615Z AUTO 00000KT 10SM CLR 03/03 A3033 RMK AO1 T00320032
KW31 180555Z AUTO 00000KT 10SM CLR 03/03 A3033 RMK AO1 T00320032 10075 20030
KW31 180535Z AUTO 00000KT 10SM CLR 04/04 A3033 RMK AO1 T00370037
KW31 180515Z AUTO 00000KT 10SM CLR 04/04 A3033 RMK AO1 T00350035
KW31 180455Z AUTO 00000KT 10SM CLR 03/03 A3033 RMK AO1 T00340033 401660034
KW31 180435Z AUTO 12003KT 10SM CLR 04/04 A3033 RMK AO1 T00370037
KW31 180415Z AUTO 00000KT 10SM CLR 04/04 A3034 RMK AO1 T00370037
KW31 180355Z AUTO 00000KT 10SM CLR 04/04 A3034 RMK AO1 T00420042
KW31 180335Z AUTO 00000KT 10SM CLR 04/04 A3034 RMK AO1 T00410039
KW31 180315Z AUTO 00000KT 10SM CLR 05/05 A3034 RMK AO1 T00490048
KW31 180255Z AUTO 00000KT 10SM CLR 05/04 A3035 RMK AO1 T00450040
KW31 180235Z AUTO 00000KT 10SM CLR 05/05 A3035 RMK AO1 T00490046
KW31 180215Z AUTO 00000KT 10SM CLR 05/05 A3035 RMK AO1 T00520052
KW31 180200Z AUTO 00000KT 10SM CLR 05/04 A3034 RMK AO1 T00520041
KW31 180135Z AUTO 00000KT 10SM CLR 05/05 A3034 RMK AO1 T00530047
KW31 180115Z AUTO 00000KT 10SM CLR 06/05 A3033 RMK AO1 T00580050
KW31 180055Z AUTO 00000KT 10SM CLR 06/05 A3033 RMK AO1 T00590047
KW31 180035Z AUTO 00000KT 10SM CLR 07/06 A3032 RMK AO1 T00660059
KW31 180015Z AUTO 00000KT 10SM CLR 07/05 A3032 RMK AO1 T00700050
KW31 172355Z AUTO 00000KT 10SM CLR 08/05 A3032 RMK AO1 T00750053 10166 20075
KW31 172335Z AUTO 00000KT 10SM CLR 08/05 A3031 RMK AO1 T00820053
KW31 172315Z AUTO 00000KT 10SM CLR 09/05 A3031 RMK AO1 T00930051
KW31 172255Z AUTO 00000KT 10SM CLR 10/05 A3030 RMK AO1 T01030053